Terminal Aerodrome Forecast
Issued by NWS

Home | Current Version | Previous Version | Text Only | Print | Product List | Glossary On
Versions: 1 2 3 4 5 6 7 8 9 10 11 12 13 14 15
341
FTUS44 KLUB 240534
TAFCDS
TAF
KCDS 240534Z 2406/2506 15014KT P6SM FEW025 BKN040 OVC150
     FM241400 17015KT P6SM -SHRA SCT025 BKN040 OVC070=

USA.gov is the U.S. government's official web portal to all federal, state and local government web resources and services.